Time;durP1;ratioP1;P1;durP2;ratioP2;P2;SDS_P1;SDS_P2;PMS_P1;PMS_P2;Temp;Humidity;BMP_temperature;BMP_pressure;BME280_temperature;BME280_humidity;BME280_pressure;Samples;Min_cycle;Max_cycle;Signal;HPM_P1;HPM_P2
2022/03/02 00:01:09;;;;;;;;;;;;;;;13.02;40.39;101926.06;4919610;28;98958;-71
2022/03/02 00:03:36;;;;;;;;;;;;;;;13.00;40.39;101933.59;4919567;28;98018;-71
2022/03/02 00:06:02;;;;;;;;;;;;;;;12.98;40.37;101938.47;4922892;28;98353;-69
2022/03/02 00:08:28;;;;;;;;;;;;;;;12.95;40.21;101938.94;4922316;28;98555;-64
2022/03/02 00:10:54;;;;;;;;;;;;;;;12.96;40.52;101937.06;4936830;28;127131;-70
2022/03/02 00:13:20;;;;;;;;;;;;;;;12.93;40.49;101932.13;4940058;28;119282;-70
2022/03/02 00:15:45;;;;;;;;;;;;;;;12.92;40.38;101930.50;4922064;28;109178;-71
2022/03/02 00:18:11;;;;;;;;;;;;;;;12.91;40.25;101939.69;4922896;28;98647;-63
2022/03/02 00:20:37;;;;;;;;;;;;;;;12.88;40.47;101932.88;4934923;28;127988;-63
2022/03/02 00:23:03;;;;;;;;;;;;;;;12.86;40.40;101923.38;4920216;28;125537;-71
2022/03/02 00:25:29;;;;;;;;;;;;;;;12.86;40.40;101920.69;4902933;28;123000;-63
2022/03/02 00:27:55;;;;;;;;;;;;;;;12.84;40.53;101920.09;4921587;28;98479;-69
2022/03/02 00:30:23;;;;;;;;;;;;;;;12.82;40.48;101916.84;4936304;28;118487;-63
2022/03/02 00:32:48;;;;;;;;;;;;;;;12.79;40.25;101915.44;4940946;28;98664;-63
2022/03/02 00:35:14;;;;;;;;;;;;;;;12.76;40.53;101910.50;4938922;28;123057;-71
2022/03/02 00:37:40;;;;;;;;;;;;;;;12.73;40.69;101901.00;4933681;28;128727;-70
2022/03/02 00:40:06;;;;;;;;;;;;;;;12.72;40.48;101903.94;4920137;28;127288;-71
2022/03/02 00:42:32;;;;;;;;;;;;;;;12.69;40.48;101902.56;4919658;28;125585;-69
2022/03/02 00:44:58;;;;;;;;;;;;;;;12.67;40.60;101898.47;4933139;28;122744;-63
2022/03/02 00:47:24;;;;;;;;;;;;;;;12.65;40.37;101896.00;4940223;28;128284;-71
2022/03/02 00:49:50;;;;;;;;;;;;;;;12.64;40.68;101901.66;4938257;28;100648;-71
2022/03/02 00:52:17;;;;;;;;;;;;;;;12.61;40.63;101897.53;4921091;28;126642;-64
2022/03/02 00:54:43;;;;;;;;;;;;;;;12.59;40.77;101888.88;4920903;28;97996;-71
2022/03/02 00:57:09;;;;;;;;;;;;;;;12.57;40.39;101888.28;4919201;28;128227;-64
2022/03/02 00:59:34;;;;;;;;;;;;;;;12.56;40.28;101883.94;4923893;28;126816;-63
2022/03/02 01:02:00;;;;;;;;;;;;;;;12.55;40.40;101884.22;4939884;28;128059;-64
2022/03/02 01:04:26;;;;;;;;;;;;;;;12.53;40.45;101881.72;4930865;28;118420;-65
2022/03/02 01:06:52;;;;;;;;;;;;;;;12.51;40.81;101871.16;4932329;28;125996;-63
2022/03/02 01:09:18;;;;;;;;;;;;;;;12.49;40.22;101875.19;4938963;28;128707;-70
2022/03/02 01:11:44;;;;;;;;;;;;;;;12.47;40.63;101878.13;4936702;28;126954;-70
2022/03/02 01:14:10;;;;;;;;;;;;;;;12.45;40.57;101871.31;4939335;28;121763;-63
2022/03/02 01:16:36;;;;;;;;;;;;;;;12.44;40.54;101875.09;4889089;28;115399;-63
2022/03/02 01:19:02;;;;;;;;;;;;;;;12.41;40.68;101865.59;4940583;28;101905;-69
2022/03/02 01:21:28;;;;;;;;;;;;;;;12.39;40.69;101867.72;4909319;28;127932;-64
2022/03/02 01:23:56;;;;;;;;;;;;;;;12.37;40.52;101875.25;4901634;28;121581;-71
2022/03/02 01:26:22;;;;;;;;;;;;;;;12.35;40.48;101873.88;4902417;28;98398;-71
2022/03/02 01:28:48;;;;;;;;;;;;;;;12.32;40.61;101864.38;4902559;28;98447;-71
2022/03/02 01:31:14;;;;;;;;;;;;;;;12.30;40.72;101855.69;4901582;28;98248;-63
2022/03/02 01:33:40;;;;;;;;;;;;;;;12.29;40.55;101857.56;4920566;28;97780;-64
2022/03/02 01:36:06;;;;;;;;;;;;;;;12.28;40.89;101863.22;4920615;28;98142;-71
2022/03/02 01:38:32;;;;;;;;;;;;;;;12.26;40.44;101859.91;4920348;28;98811;-71
2022/03/02 01:40:58;;;;;;;;;;;;;;;12.24;40.92;101860.19;4918301;28;127461;-70
2022/03/02 01:43:27;;;;;;;;;;;;;;;12.23;40.45;101860.44;4920178;28;97764;-63
2022/03/02 01:45:53;;;;;;;;;;;;;;;12.22;40.62;101856.06;4918551;28;98940;-63
2022/03/02 01:48:19;;;;;;;;;;;;;;;12.19;40.48;101862.81;4903377;28;101435;-63
2022/03/02 01:50:45;;;;;;;;;;;;;;;12.19;40.79;101848.47;4935423;28;128037;-63
2022/03/02 01:53:11;;;;;;;;;;;;;;;12.18;40.40;101849.50;4939900;28;97760;-71
2022/03/02 01:55:37;;;;;;;;;;;;;;;12.15;40.84;101848.13;4938815;28;99008;-63
2022/03/02 01:58:03;;;;;;;;;;;;;;;12.15;40.23;101845.44;4938855;28;99270;-63
2022/03/02 02:00:29;;;;;;;;;;;;;;;12.14;40.34;101838.38;4929633;28;127789;-63
2022/03/02 02:02:55;;;;;;;;;;;;;;;12.12;40.58;101824.28;4920230;28;98254;-70
2022/03/02 02:05:21;;;;;;;;;;;;;;;12.11;40.54;101819.97;4902790;28;98511;-70
2022/03/02 02:07:47;;;;;;;;;;;;;;;12.10;40.48;101820.19;4935583;28;122274;-65
2022/03/02 02:10:13;;;;;;;;;;;;;;;12.07;41.04;101821.50;4936982;28;98432;-71
2022/03/02 02:12:39;;;;;;;;;;;;;;;12.06;40.79;101835.25;4933148;28;98174;-70
2022/03/02 02:15:05;;;;;;;;;;;;;;;12.03;40.45;101831.19;4938465;28;99047;-72
2022/03/02 02:17:31;;;;;;;;;;;;;;;12.01;40.53;101828.69;4934017;28;98322;-63
2022/03/02 02:19:57;;;;;;;;;;;;;;;11.99;40.33;101825.44;4918795;28;127760;-72
2022/03/02 02:22:23;;;;;;;;;;;;;;;11.98;40.84;101828.38;4918653;28;123419;-64
2022/03/02 02:24:49;;;;;;;;;;;;;;;11.97;40.74;101822.16;4918544;28;129084;-64
2022/03/02 02:27:15;;;;;;;;;;;;;;;11.95;40.85;101812.66;4918543;28;129090;-63
2022/03/02 02:29:41;;;;;;;;;;;;;;;11.93;41.02;101818.28;4917330;28;121549;-64
2022/03/02 02:32:07;;;;;;;;;;;;;;;11.91;40.73;101823.13;4919936;28;104035;-63
2022/03/02 02:34:33;;;;;;;;;;;;;;;11.90;40.60;101805.25;4918406;28;120329;-64
2022/03/02 02:37:00;;;;;;;;;;;;;;;11.89;40.99;101810.91;4917995;28;98954;-71
2022/03/02 02:39:27;;;;;;;;;;;;;;;11.88;40.55;101803.88;4919667;28;97941;-63
2022/03/02 02:41:53;;;;;;;;;;;;;;;11.87;40.65;101800.38;4918063;28;97898;-64
2022/03/02 02:44:18;;;;;;;;;;;;;;;11.86;40.59;101796.00;4918242;28;117266;-70
2022/03/02 02:46:45;;;;;;;;;;;;;;;11.84;40.70;101792.75;4916546;28;128242;-70
2022/03/02 02:49:11;;;;;;;;;;;;;;;11.83;40.46;101791.13;4917123;28;99971;-63
2022/03/02 02:51:37;;;;;;;;;;;;;;;11.82;40.81;101791.31;4921002;28;97816;-67
2022/03/02 02:54:03;;;;;;;;;;;;;;;11.79;40.89;101787.22;4920597;28;114165;-63
2022/03/02 02:56:29;;;;;;;;;;;;;;;11.77;40.66;101784.75;4922472;28;118117;-64
2022/03/02 02:58:55;;;;;;;;;;;;;;;11.76;40.68;101779.59;4921652;28;126362;-71
2022/03/02 03:01:21;;;;;;;;;;;;;;;11.73;40.52;101775.50;4923205;28;122926;-71
2022/03/02 03:03:47;;;;;;;;;;;;;;;11.70;41.09;101781.38;4924500;28;126577;-64
2022/03/02 03:06:13;;;;;;;;;;;;;;;11.68;40.59;101783.53;4942435;28;99594;-64
2022/03/02 03:08:39;;;;;;;;;;;;;;;11.66;40.94;101777.53;4941244;28;126469;-70
2022/03/02 03:11:05;;;;;;;;;;;;;;;11.65;40.69;101778.59;4941378;28;119330;-72
2022/03/02 03:13:31;;;;;;;;;;;;;;;11.64;40.65;101786.94;4907260;28;98799;-63
2022/03/02 03:15:57;;;;;;;;;;;;;;;11.62;41.06;101775.56;4922901;28;113755;-64
2022/03/02 03:18:23;;;;;;;;;;;;;;;11.60;40.54;101778.50;4905837;28;127882;-64
2022/03/02 03:20:49;;;;;;;;;;;;;;;11.59;40.80;101782.25;4941850;28;108423;-63
2022/03/02 03:23:15;;;;;;;;;;;;;;;11.58;41.13;101777.91;4924041;28;114242;-71
2022/03/02 03:25:41;;;;;;;;;;;;;;;11.56;40.96;101769.25;4942511;28;97999;-72
2022/03/02 03:28:07;;;;;;;;;;;;;;;11.55;41.16;101768.44;4940576;28;127285;-70
2022/03/02 03:30:33;;;;;;;;;;;;;;;11.53;40.84;101775.94;4941953;28;109891;-64
2022/03/02 03:33:00;;;;;;;;;;;;;;;11.52;40.95;101768.91;4923517;28;98887;-70
2022/03/02 03:35:26;;;;;;;;;;;;;;;11.50;40.52;101771.03;4922057;28;98211;-64
2022/03/02 03:37:52;;;;;;;;;;;;;;;11.50;41.16;101767.50;4942213;28;98466;-63
2022/03/02 03:40:19;;;;;;;;;;;;;;;11.48;41.09;101762.38;4940694;28;97845;-71
2022/03/02 03:42:45;;;;;;;;;;;;;;;11.47;40.56;101762.59;4933836;28;98579;-63
2022/03/02 03:45:10;;;;;;;;;;;;;;;11.45;41.08;101773.66;4921834;28;98254;-71
2022/03/02 03:47:36;;;;;;;;;;;;;;;11.43;41.19;101778.44;4921841;28;97932;-63
2022/03/02 03:50:03;;;;;;;;;;;;;;;11.42;40.82;101776.00;4912037;28;123289;-63
2022/03/02 03:52:29;;;;;;;;;;;;;;;11.42;40.78;101770.59;4941006;28;103215;-63
2022/03/02 03:54:55;;;;;;;;;;;;;;;11.40;40.83;101762.75;4939319;28;128315;-70
2022/03/02 03:57:21;;;;;;;;;;;;;;;11.39;40.66;101760.28;4942009;28;98136;-71
2022/03/02 03:59:47;;;;;;;;;;;;;;;11.36;41.21;101761.59;4938450;28;123210;-63
2022/03/02 04:02:13;;;;;;;;;;;;;;;11.36;40.91;101756.19;4940574;28;119692;-70
2022/03/02 04:04:39;;;;;;;;;;;;;;;11.34;40.65;101755.59;4940284;28;99021;-63
2022/03/02 04:07:05;;;;;;;;;;;;;;;11.33;40.95;101751.28;4940659;28;115140;-65
2022/03/02 04:09:31;;;;;;;;;;;;;;;11.32;40.55;101760.44;4941049;28;98003;-64
2022/03/02 04:11:57;;;;;;;;;;;;;;;11.31;41.37;101751.50;4940087;28;128317;-71
2022/03/02 04:14:23;;;;;;;;;;;;;;;11.30;40.81;101747.16;4941085;28;98439;-63
2022/03/02 04:16:49;;;;;;;;;;;;;;;11.29;41.19;101744.72;4938835;28;127699;-71
2022/03/02 04:19:15;;;;;;;;;;;;;;;11.29;40.63;101755.53;4940120;28;122848;-63
2022/03/02 04:21:41;;;;;;;;;;;;;;;11.28;40.58;101743.09;4921550;28;128782;-64
2022/03/02 04:24:07;;;;;;;;;;;;;;;11.27;40.64;101739.53;4905719;28;98840;-63
2022/03/02 04:26:33;;;;;;;;;;;;;;;11.27;40.92;101744.94;4940381;28;127603;-71
2022/03/02 04:28:59;;;;;;;;;;;;;;;11.27;40.61;101736.84;4921675;28;122675;-71
2022/03/02 04:31:24;;;;;;;;;;;;;;;11.27;40.84;101727.94;4922026;28;128304;-70
2022/03/02 04:33:50;;;;;;;;;;;;;;;11.26;41.02;101735.22;4939355;28;126539;-71
2022/03/02 04:36:16;;;;;;;;;;;;;;;11.26;40.94;101729.00;4934371;28;128096;-63
2022/03/02 04:38:42;;;;;;;;;;;;;;;11.25;41.13;101738.97;4933926;28;122547;-63
2022/03/02 04:41:08;;;;;;;;;;;;;;;11.26;41.46;101737.09;4923058;28;97832;-64
2022/03/02 04:43:34;;;;;;;;;;;;;;;11.25;40.99;101736.28;4919194;28;127439;-69
2022/03/02 04:46:00;;;;;;;;;;;;;;;11.26;40.99;101737.09;4939094;28;125544;-63
2022/03/02 04:48:26;;;;;;;;;;;;;;;11.27;41.40;101736.03;4939826;28;113137;-70
2022/03/02 04:50:52;;;;;;;;;;;;;;;11.26;40.84;101742.50;4934437;28;98421;-71
2022/03/02 04:53:18;;;;;;;;;;;;;;;11.26;41.06;101739.81;4919476;28;128388;-63
2022/03/02 04:55:44;;;;;;;;;;;;;;;11.26;40.99;101740.63;4920306;28;98051;-71
2022/03/02 04:58:10;;;;;;;;;;;;;;;11.25;40.75;101741.69;4921904;28;98136;-71
2022/03/02 05:00:37;;;;;;;;;;;;;;;11.25;40.98;101738.97;4903897;28;98352;-71
2022/03/02 05:03:04;;;;;;;;;;;;;;;11.25;41.54;101741.69;4921579;28;98386;-70
2022/03/02 05:05:31;;;;;;;;;;;;;;;11.25;41.27;101728.19;4919716;28;113078;-71
2022/03/02 05:07:58;;;;;;;;;;;;;;;11.24;40.99;101726.56;4921326;28;97737;-71
2022/03/02 05:10:24;;;;;;;;;;;;;;;11.23;41.54;101724.91;4919353;28;99113;-71
2022/03/02 05:12:50;;;;;;;;;;;;;;;11.24;41.13;101725.75;4928553;28;107375;-71
2022/03/02 05:15:16;;;;;;;;;;;;;;;11.22;40.81;101728.66;4938942;28;99191;-71
2022/03/02 05:17:42;;;;;;;;;;;;;;;11.22;41.46;101734.06;4941248;28;97683;-63
2022/03/02 05:20:09;;;;;;;;;;;;;;;11.22;40.86;101739.47;4938736;28;115132;-70
2022/03/02 05:22:35;;;;;;;;;;;;;;;11.21;40.95;101731.63;4939823;28;117834;-71
2022/03/02 05:25:01;;;;;;;;;;;;;;;11.20;40.77;101741.59;4920315;28;128363;-70
2022/03/02 05:27:27;;;;;;;;;;;;;;;11.20;41.27;101736.19;4939524;28;104104;-71
2022/03/02 05:29:53;;;;;;;;;;;;;;;11.20;40.79;101733.50;4939291;28;118341;-63
2022/03/02 05:32:19;;;;;;;;;;;;;;;11.20;41.24;101743.44;4921234;28;127239;-71
2022/03/02 05:34:45;;;;;;;;;;;;;;;11.20;41.12;101751.53;4937427;28;126772;-71
2022/03/02 05:37:11;;;;;;;;;;;;;;;11.20;41.04;101741.59;4922762;28;124445;-70
2022/03/02 05:39:36;;;;;;;;;;;;;;;11.19;41.51;101742.63;4916963;28;127991;-71
2022/03/02 05:42:03;;;;;;;;;;;;;;;11.19;41.40;101745.34;4934159;28;126843;-72
2022/03/02 05:44:29;;;;;;;;;;;;;;;11.19;41.22;101747.22;4938921;28;98276;-64
2022/03/02 05:46:54;;;;;;;;;;;;;;;11.19;41.41;101744.50;4939668;28;122394;-63
2022/03/02 05:49:20;;;;;;;;;;;;;;;11.20;40.87;101746.16;4921400;28;121560;-72
2022/03/02 05:51:46;;;;;;;;;;;;;;;11.20;41.35;101743.44;4936861;28;129330;-70
2022/03/02 05:54:12;;;;;;;;;;;;;;;11.21;41.07;101750.50;4939461;28;98187;-70
2022/03/02 05:56:39;;;;;;;;;;;;;;;11.21;41.17;101742.41;4937615;28;122596;-63
2022/03/02 05:59:05;;;;;;;;;;;;;;;11.22;41.50;101752.13;4937577;28;98476;-63
2022/03/02 06:01:31;;;;;;;;;;;;;;;11.24;41.09;101752.72;4939187;28;98283;-72
2022/03/02 06:03:58;;;;;;;;;;;;;;;11.26;41.62;101750.59;4938258;28;98455;-71
2022/03/02 06:06:23;;;;;;;;;;;;;;;11.28;41.30;101751.19;4939037;28;106964;-64
2022/03/02 06:08:50;;;;;;;;;;;;;;;11.29;40.73;101739.31;4936641;28;122567;-71
2022/03/02 06:11:16;;;;;;;;;;;;;;;11.31;41.19;101748.81;4918875;28;100466;-71
2022/03/02 06:13:42;;;;;;;;;;;;;;;11.34;41.56;101742.09;4920284;28;97745;-63
2022/03/02 06:16:08;;;;;;;;;;;;;;;11.37;40.87;101744.34;4919144;28;110297;-64
2022/03/02 06:18:34;;;;;;;;;;;;;;;11.39;41.01;101742.19;4918087;28;103983;-63
2022/03/02 06:21:01;;;;;;;;;;;;;;;11.40;40.91;101741.16;4918232;28;118326;-63
2022/03/02 06:23:30;;;;;;;;;;;;;;;11.41;41.72;101736.56;4918282;28;98049;-63
2022/03/02 06:25:56;;;;;;;;;;;;;;;11.43;41.36;101748.75;4918591;28;98139;-71
2022/03/02 06:28:23;;;;;;;;;;;;;;;11.46;40.85;101732.06;4930144;28;99348;-64
2022/03/02 06:30:49;;;;;;;;;;;;;;;11.50;40.91;101737.81;4924434;28;98344;-71
2022/03/02 06:33:18;;;;;;;;;;;;;;;11.50;41.51;101733.22;4923129;28;116102;-70
2022/03/02 06:35:47;;;;;;;;;;;;;;;11.54;41.33;101731.69;4925643;28;98512;-63
2022/03/02 06:38:13;;;;;;;;;;;;;;;11.61;41.57;101733.41;4942026;28;98327;-71
2022/03/02 06:40:40;;;;;;;;;;;;;;;11.63;41.31;101733.97;4940601;28;97767;-66
2022/03/02 06:43:08;;;;;;;;;;;;;;;11.67;41.37;101727.88;4941387;28;97921;-63
2022/03/02 06:45:37;;;;;;;;;;;;;;;11.72;41.39;101733.34;4935725;28;115032;-71
2022/03/02 06:48:11;;;;;;;;;;;;;;;11.76;40.97;101731.78;4923682;28;98639;-64
2022/03/02 06:50:38;;;;;;;;;;;;;;;11.79;41.14;101725.09;4926039;28;98197;-71
2022/03/02 06:53:04;;;;;;;;;;;;;;;11.84;41.53;101736.00;4931385;28;114633;-70
2022/03/02 06:55:30;;;;;;;;;;;;;;;11.88;41.15;101729.06;4908427;28;123209;-63
2022/03/02 06:57:56;;;;;;;;;;;;;;;11.93;41.08;101731.00;4937983;28;98685;-69
2022/03/02 07:00:23;;;;;;;;;;;;;;;11.99;41.47;101727.34;4939283;28;111334;-71
2022/03/02 07:03:05;;;;;;;;;;;;;;;12.05;41.65;101729.03;4942284;28;98510;-71
2022/03/02 07:05:31;;;;;;;;;;;;;;;12.13;41.27;101727.81;4939146;28;98415;-63
2022/03/02 07:07:58;;;;;;;;;;;;;;;12.18;41.42;101731.41;4941093;28;98312;-63
2022/03/02 07:10:23;;;;;;;;;;;;;;;12.25;41.08;101736.63;4923535;28;115599;-70
2022/03/02 07:12:49;;;;;;;;;;;;;;;12.31;41.21;101734.84;4923831;28;98109;-63
2022/03/02 07:15:16;;;;;;;;;;;;;;;12.36;41.33;101735.72;4940502;28;98027;-63
2022/03/02 07:17:42;;;;;;;;;;;;;;;12.41;41.33;101743.91;4941831;28;98393;-63
2022/03/02 07:20:10;;;;;;;;;;;;;;;12.46;41.41;101738.59;4941016;28;98850;-71
2022/03/02 07:22:49;;;;;;;;;;;;;;;12.51;41.51;101740.53;4922431;28;97993;-71
2022/03/02 07:25:25;;;;;;;;;;;;;;;12.55;41.55;101728.16;4920354;28;101980;-63
2022/03/02 07:27:51;;;;;;;;;;;;;;;12.61;41.30;101723.63;4951488;28;98642;-63
2022/03/02 07:30:17;;;;;;;;;;;;;;;12.69;41.32;101717.78;4939096;28;127708;-70
2022/03/02 07:32:45;;;;;;;;;;;;;;;12.77;41.42;101729.00;4939289;28;128071;-69
2022/03/02 07:35:11;;;;;;;;;;;;;;;12.89;41.47;101722.63;4938935;28;99208;-69
2022/03/02 07:37:38;;;;;;;;;;;;;;;13.02;41.26;101719.53;4938800;28;98863;-63
2022/03/02 07:40:04;;;;;;;;;;;;;;;13.13;41.26;101736.72;4940806;28;105598;-63
2022/03/02 07:42:31;;;;;;;;;;;;;;;13.25;41.42;101734.72;4941476;28;98589;-71
2022/03/02 07:44:58;;;;;;;;;;;;;;;13.35;41.46;101732.09;4940777;28;115377;-64
2022/03/02 07:47:24;;;;;;;;;;;;;;;13.44;41.29;101732.44;4923571;28;98336;-64
2022/03/02 07:49:50;;;;;;;;;;;;;;;13.52;41.47;101729.31;4928485;28;98430;-69
2022/03/02 07:52:16;;;;;;;;;;;;;;;13.63;41.40;101741.03;4921659;28;98511;-70
2022/03/02 07:54:42;;;;;;;;;;;;;;;13.77;41.31;101736.84;4922224;28;97946;-64
2022/03/02 07:57:11;;;;;;;;;;;;;;;13.91;41.38;101734.50;4921109;28;128804;-70
2022/03/02 07:59:39;;;;;;;;;;;;;;;14.08;41.61;101737.09;4932661;28;106448;-69
2022/03/02 08:02:06;;;;;;;;;;;;;;;14.24;41.54;101736.94;4942452;28;98462;-65
2022/03/02 08:04:32;;;;;;;;;;;;;;;14.42;41.29;101735.69;4941714;28;98061;-70
2022/03/02 08:06:58;;;;;;;;;;;;;;;14.67;41.21;101731.50;4939169;28;128754;-64
2022/03/02 08:09:23;;;;;;;;;;;;;;;14.91;41.02;101726.47;4940237;28;127387;-64
2022/03/02 08:11:49;;;;;;;;;;;;;;;15.09;41.40;101725.13;4940366;28;127685;-69
2022/03/02 08:14:18;;;;;;;;;;;;;;;15.09;41.27;101723.25;4921318;28;123051;-64
2022/03/02 08:16:45;;;;;;;;;;;;;;;15.17;41.31;101720.03;4941731;28;98362;-70
2022/03/02 08:19:11;;;;;;;;;;;;;;;15.31;41.39;101714.88;4921283;28;120633;-64
2022/03/02 08:21:38;;;;;;;;;;;;;;;15.69;41.16;101705.44;4920664;28;98433;-68
2022/03/02 08:24:05;;;;;;;;;;;;;;;16.19;40.61;101705.66;4903336;28;97823;-64
2022/03/02 08:26:35;;;;;;;;;;;;;;;16.71;40.20;101701.72;4922248;28;98085;-64
2022/03/02 08:29:04;;;;;;;;;;;;;;;17.18;40.06;101703.16;4922182;28;98523;-70
2022/03/02 08:31:30;;;;;;;;;;;;;;;17.38;40.04;101702.19;4920447;28;98544;-64
2022/03/02 08:33:57;;;;;;;;;;;;;;;17.54;40.07;101698.25;4921108;28;98018;-69
2022/03/02 08:36:23;;;;;;;;;;;;;;;18.16;39.50;101698.56;4921376;28;122618;-70
2022/03/02 08:38:50;;;;;;;;;;;;;;;19.02;38.58;101687.69;4903243;28;99132;-69
2022/03/02 08:41:17;;;;;;;;;;;;;;;19.08;38.84;101692.81;4921301;28;98192;-68
2022/03/02 08:43:44;;;;;;;;;;;;;;;19.17;39.20;101697.59;4887537;28;97949;-68
2022/03/02 08:46:10;;;;;;;;;;;;;;;19.20;39.14;101700.56;4903835;28;98280;-68
2022/03/02 08:48:36;;;;;;;;;;;;;;;19.40;39.11;101698.63;4923042;28;126242;-64
2022/03/02 08:51:02;;;;;;;;;;;;;;;19.75;38.86;101691.81;4940045;28;127511;-64
2022/03/02 08:53:28;;;;;;;;;;;;;;;20.12;38.72;101685.38;4940552;28;97773;-69
2022/03/02 08:55:54;;;;;;;;;;;;;;;20.42;38.47;101683.19;4920353;28;98715;-70
2022/03/02 08:58:20;;;;;;;;;;;;;;;20.89;38.10;101692.09;4918266;28;127883;-64
2022/03/02 09:00:46;;;;;;;;;;;;;;;21.49;37.56;101697.31;4902028;28;127787;-69
2022/03/02 09:03:15;;;;;;;;;;;;;;;22.67;36.26;101686.78;4919562;28;123484;-64
2022/03/02 09:05:42;;;;;;;;;;;;;;;23.59;35.71;101690.25;4919291;28;127892;-65
2022/03/02 09:08:08;;;;;;;;;;;;;;;24.86;34.74;101681.34;4886406;28;122005;-64
2022/03/02 09:10:37;;;;;;;;;;;;;;;25.95;33.71;101683.00;4921560;28;98470;-68
2022/03/02 09:13:03;;;;;;;;;;;;;;;26.51;33.43;101686.03;4917813;28;110730;-68
2022/03/02 09:15:29;;;;;;;;;;;;;;;27.86;32.34;101677.31;4932970;28;98101;-69
2022/03/02 09:17:57;;;;;;;;;;;;;;;29.83;30.54;101672.19;4939271;28;118882;-65
2022/03/02 09:20:23;;;;;;;;;;;;;;;30.78;30.29;101676.88;4939953;28;111232;-69
2022/03/02 09:22:49;;;;;;;;;;;;;;;30.94;30.96;101673.09;4939443;28;120235;-65
2022/03/02 09:25:15;;;;;;;;;;;;;;;31.57;30.62;101677.03;4935244;28;127358;-69
2022/03/02 09:27:40;;;;;;;;;;;;;;;31.88;31.01;101670.19;4939707;28;128812;-65
2022/03/02 09:30:08;;;;;;;;;;;;;;;31.28;31.80;101668.31;4936527;28;126290;-69
2022/03/02 09:32:34;;;;;;;;;;;;;;;30.46;32.73;101658.91;4939671;28;113254;-68
2022/03/02 09:35:00;;;;;;;;;;;;;;;30.08;33.67;101664.25;4925372;28;98518;-64
2022/03/02 09:37:28;;;;;;;;;;;;;;;30.27;33.03;101652.28;4921253;28;98223;-64
2022/03/02 09:39:54;;;;;;;;;;;;;;;30.92;32.60;101645.63;4917694;28;98490;-68
2022/03/02 09:42:30;;;;;;;;;;;;;;;31.60;31.96;101645.59;4934116;28;103666;-64
2022/03/02 09:45:05;;;;;;;;;;;;;;;32.34;31.44;101645.44;4919120;28;98805;-68
2022/03/02 09:47:45;;;;;;;;;;;;;;;33.14;30.73;101645.50;4940509;28;100762;-64
2022/03/02 09:50:12;;;;;;;;;;;;;;;34.32;30.24;101637.22;4932153;28;99009;-68
2022/03/02 09:52:41;;;;;;;;;;;;;;;35.69;28.93;101646.63;4918175;28;112293;-67
2022/03/02 09:55:12;;;;;;;;;;;;;;;36.84;28.25;101635.06;4937933;28;98270;-65
2022/03/02 09:57:46;;;;;;;;;;;;;;;37.88;27.71;101636.38;4940114;28;98418;-68
2022/03/02 10:00:14;;;;;;;;;;;;;;;38.60;27.08;101627.44;4925609;28;112494;-65
2022/03/02 10:02:44;;;;;;;;;;;;;;;39.01;26.54;101627.75;4918320;28;98217;-65
2022/03/02 10:05:11;;;;;;;;;;;;;;;39.52;26.62;101619.72;4918813;28;98638;-65
2022/03/02 10:07:40;;;;;;;;;;;;;;;39.87;26.37;101622.91;4920119;28;98982;-65
2022/03/02 10:10:10;;;;;;;;;;;;;;;39.92;26.13;101611.06;4919807;28;99287;-68
2022/03/02 10:12:36;;;;;;;;;;;;;;;40.74;25.54;101610.84;4937240;28;97931;-65
2022/03/02 10:15:04;;;;;;;;;;;;;;;41.29;25.12;101610.78;4918545;28;98421;-68
2022/03/02 10:17:35;;;;;;;;;;;;;;;41.60;24.90;101608.94;4939487;28;98565;-68
2022/03/02 10:20:06;;;;;;;;;;;;;;;41.86;24.70;101600.41;4938326;28;98667;-65
2022/03/02 10:23:00;;;;;;;;;;;;;;;42.03;24.54;101598.97;4939714;28;98370;-62
2022/03/02 10:25:37;;;;;;;;;;;;;;;41.64;24.90;101606.78;4938347;28;99686;-66
2022/03/02 10:28:04;;;;;;;;;;;;;;;41.63;24.99;101601.59;4921754;28;104149;-63
2022/03/02 10:30:33;;;;;;;;;;;;;;;41.63;24.99;101595.94;4937329;28;113209;-67
2022/03/02 10:33:11;;;;;;;;;;;;;;;41.92;24.72;101590.88;4921137;28;102686;-63
2022/03/02 10:35:39;;;;;;;;;;;;;;;42.23;24.44;101592.22;4920034;28;98395;-67
2022/03/02 10:38:05;;;;;;;;;;;;;;;42.24;24.08;101582.47;4921634;28;97938;-63
2022/03/02 10:40:35;;;;;;;;;;;;;;;42.18;24.11;101583.06;4904723;28;98087;-66
2022/03/02 10:43:04;;;;;;;;;;;;;;;42.18;24.08;101576.59;4902324;28;98658;-63
2022/03/02 10:45:36;;;;;;;;;;;;;;;42.16;24.17;101584.75;4918830;28;98292;-64
2022/03/02 10:48:11;;;;;;;;;;;;;;;42.10;24.02;101578.13;4921095;28;99458;-67
2022/03/02 10:50:38;;;;;;;;;;;;;;;41.86;24.06;101567.25;4901359;28;100115;-67
2022/03/02 10:53:05;;;;;;;;;;;;;;;41.51;24.31;101572.09;4919496;28;97894;-67
2022/03/02 10:55:32;;;;;;;;;;;;;;;41.17;24.30;101567.91;4921610;28;98823;-64
2022/03/02 10:57:58;;;;;;;;;;;;;;;40.83;24.50;101565.75;4938492;28;99173;-63
2022/03/02 11:00:25;;;;;;;;;;;;;;;40.36;24.71;101559.91;4921305;28;120055;-67
2022/03/02 11:02:56;;;;;;;;;;;;;;;39.89;25.45;101554.75;4919053;28;97850;-67
2022/03/02 11:05:23;;;;;;;;;;;;;;;39.32;25.91;101550.59;4918625;28;98348;-67
2022/03/02 11:07:49;;;;;;;;;;;;;;;38.75;25.59;101538.56;4891301;28;109464;-64
2022/03/02 11:10:18;;;;;;;;;;;;;;;38.27;26.26;101537.97;4937860;28;105150;-64
2022/03/02 11:12:45;;;;;;;;;;;;;;;37.86;26.80;101538.38;4940529;28;98023;-64
2022/03/02 11:15:11;;;;;;;;;;;;;;;37.44;26.89;101525.88;4940286;28;108140;-68
2022/03/02 11:17:57;;;;;;;;;;;;;;;37.06;27.12;101534.47;4942182;28;98854;-66
2022/03/02 11:20:24;;;;;;;;;;;;;;;36.67;27.49;101527.41;4907756;28;122415;-63
2022/03/02 11:22:58;;;;;;;;;;;;;;;36.40;27.51;101532.16;4941783;28;97810;-66
2022/03/02 11:25:45;;;;;;;;;;;;;;;36.16;27.79;101522.81;4940847;28;98577;-63
2022/03/02 11:28:19;;;;;;;;;;;;;;;35.98;28.06;101512.59;4924339;28;98241;-64
2022/03/02 11:30:57;;;;;;;;;;;;;;;35.82;28.00;101512.34;4941385;28;98040;-64
2022/03/02 11:33:25;;;;;;;;;;;;;;;35.64;27.90;101515.31;4906820;28;97868;-64
2022/03/02 11:35:52;;;;;;;;;;;;;;;35.49;28.02;101505.44;4941540;28;98327;-64
2022/03/02 11:38:20;;;;;;;;;;;;;;;35.36;28.44;101502.34;4941376;28;123405;-68
2022/03/02 11:40:47;;;;;;;;;;;;;;;35.20;28.62;101497.28;4940916;28;97784;-67
2022/03/02 11:43:21;;;;;;;;;;;;;;;35.07;28.59;101496.97;4941936;28;97742;-67
2022/03/02 11:45:47;;;;;;;;;;;;;;;34.97;28.68;101492.22;4941175;28;98519;-64
2022/03/02 11:48:15;;;;;;;;;;;;;;;34.87;28.71;101481.91;4942254;28;98642;-69
2022/03/02 11:51:23;;;;;;;;;;;;;;;34.72;28.71;101481.19;4941063;28;98105;-68
2022/03/02 11:53:53;;;;;;;;;;;;;;;34.50;28.49;101471.31;4841445;28;98174;-68
2022/03/02 11:56:23;;;;;;;;;;;;;;;34.32;28.95;101472.19;4824991;28;98665;-69
2022/03/02 11:59:08;;;;;;;;;;;;;;;34.11;28.66;101470.28;4893426;28;108023;-68
2022/03/02 12:01:45;;;;;;;;;;;;;;;33.87;28.82;101463.50;4941143;28;97892;-69
2022/03/02 12:04:14;;;;;;;;;;;;;;;33.60;29.04;101457.63;4937464;28;97774;-64
2022/03/02 12:06:48;;;;;;;;;;;;;;;33.34;29.25;101455.22;4921667;28;98443;-67
2022/03/02 12:09:27;;;;;;;;;;;;;;;33.12;29.48;101460.00;4903791;28;98738;-64
2022/03/02 12:12:04;;;;;;;;;;;;;;;32.88;29.17;101450.38;4902497;28;97899;-64
2022/03/02 12:14:41;;;;;;;;;;;;;;;32.64;29.44;101447.16;4904348;28;105277;-64
2022/03/02 12:17:24;;;;;;;;;;;;;;;32.35;29.60;101445.47;4921581;28;98545;-68
2022/03/02 12:19:55;;;;;;;;;;;;;;;32.00;29.71;101444.91;4887722;28;98259;-64
2022/03/02 12:22:21;;;;;;;;;;;;;;;31.47;30.15;101445.34;4903248;28;98023;-64
2022/03/02 12:24:48;;;;;;;;;;;;;;;31.00;30.34;101437.78;4902507;28;97993;-69
2022/03/02 12:27:15;;;;;;;;;;;;;;;30.70;30.42;101424.78;4904810;28;99004;-69
2022/03/02 12:29:41;;;;;;;;;;;;;;;30.41;30.39;101437.56;4921272;28;98910;-70
2022/03/02 12:32:17;;;;;;;;;;;;;;;30.13;30.61;101431.63;4921033;28;122220;-68
2022/03/02 12:34:47;;;;;;;;;;;;;;;29.81;30.69;101430.03;4940326;28;98054;-68